sensor_id;sensor_type;location;lat;lon;timestamp;temperature;humidity
46159;DHT22;31888;44.512;26.104;2023-04-15T00:01:25;13.50;99.90
46159;DHT22;31888;44.512;26.104;2023-04-15T00:03:51;13.50;99.90
46159;DHT22;31888;44.512;26.104;2023-04-15T00:06:16;13.40;99.90
46159;DHT22;31888;44.512;26.104;2023-04-15T00:08:41;13.00;99.90
46159;DHT22;31888;44.512;26.104;2023-04-15T00:11:06;12.70;99.90
46159;DHT22;31888;44.512;26.104;2023-04-15T00:13:30;12.70;99.90
46159;DHT22;31888;44.512;26.104;2023-04-15T00:15:58;12.80;99.90
46159;DHT22;31888;44.512;26.104;2023-04-15T00:18:23;12.90;99.90
46159;DHT22;31888;44.512;26.104;2023-04-15T00:20:48;13.00;99.90
46159;DHT22;31888;44.512;26.104;2023-04-15T00:23:13;13.00;99.90
46159;DHT22;31888;44.512;26.104;2023-04-15T00:25:38;13.00;99.90
46159;DHT22;31888;44.512;26.104;2023-04-15T00:28:02;13.10;99.90
46159;DHT22;31888;44.512;26.104;2023-04-15T00:30:27;13.20;99.90
46159;DHT22;31888;44.512;26.104;2023-04-15T00:32:52;13.20;99.90
46159;DHT22;31888;44.512;26.104;2023-04-15T00:35:17;13.20;99.90
46159;DHT22;31888;44.512;26.104;2023-04-15T00:37:42;13.20;99.90
46159;DHT22;31888;44.512;26.104;2023-04-15T00:40:11;13.20;99.90
46159;DHT22;31888;44.512;26.104;2023-04-15T00:42:37;13.10;99.90
46159;DHT22;31888;44.512;26.104;2023-04-15T00:45:02;13.00;99.90
46159;DHT22;31888;44.512;26.104;2023-04-15T00:47:28;12.90;99.90
46159;DHT22;31888;44.512;26.104;2023-04-15T00:49:55;12.80;99.90
46159;DHT22;31888;44.512;26.104;2023-04-15T00:52:20;12.80;99.90
46159;DHT22;31888;44.512;26.104;2023-04-15T00:54:46;12.80;99.90
46159;DHT22;31888;44.512;26.104;2023-04-15T00:57:11;12.70;99.90
46159;DHT22;31888;44.512;26.104;2023-04-15T00:59:35;12.80;99.90
46159;DHT22;31888;44.512;26.104;2023-04-15T01:02:00;12.80;99.90
46159;DHT22;31888;44.512;26.104;2023-04-15T01:04:25;12.80;99.90
46159;DHT22;31888;44.512;26.104;2023-04-15T01:06:51;12.80;99.90
46159;DHT22;31888;44.512;26.104;2023-04-15T01:09:16;12.80;99.90
46159;DHT22;31888;44.512;26.104;2023-04-15T01:11:41;12.80;99.90
46159;DHT22;31888;44.512;26.104;2023-04-15T01:14:06;12.80;99.90
46159;DHT22;31888;44.512;26.104;2023-04-15T01:16:32;12.70;99.90
46159;DHT22;31888;44.512;26.104;2023-04-15T01:18:57;12.60;99.90
46159;DHT22;31888;44.512;26.104;2023-04-15T01:21:22;12.50;99.90
46159;DHT22;31888;44.512;26.104;2023-04-15T01:23:50;12.40;99.90
46159;DHT22;31888;44.512;26.104;2023-04-15T01:26:18;12.40;99.90
46159;DHT22;31888;44.512;26.104;2023-04-15T01:28:43;12.40;99.90
46159;DHT22;31888;44.512;26.104;2023-04-15T01:31:09;12.20;99.90
46159;DHT22;31888;44.512;26.104;2023-04-15T01:33:34;12.20;99.90
46159;DHT22;31888;44.512;26.104;2023-04-15T01:36:17;12.00;99.90
46159;DHT22;31888;44.512;26.104;2023-04-15T01:38:42;11.70;99.90
46159;DHT22;31888;44.512;26.104;2023-04-15T01:41:06;11.60;99.90
46159;DHT22;31888;44.512;26.104;2023-04-15T01:43:33;11.30;99.90
46159;DHT22;31888;44.512;26.104;2023-04-15T01:46:00;11.00;99.90
46159;DHT22;31888;44.512;26.104;2023-04-15T01:48:28;10.80;99.90
46159;DHT22;31888;44.512;26.104;2023-04-15T01:50:54;10.90;99.90
46159;DHT22;31888;44.512;26.104;2023-04-15T01:53:21;10.90;99.90
46159;DHT22;31888;44.512;26.104;2023-04-15T01:55:47;10.90;99.90
46159;DHT22;31888;44.512;26.104;2023-04-15T01:58:13;10.90;99.90
46159;DHT22;31888;44.512;26.104;2023-04-15T02:00:41;10.90;99.90
46159;DHT22;31888;44.512;26.104;2023-04-15T02:03:07;10.90;99.90
46159;DHT22;31888;44.512;26.104;2023-04-15T02:05:33;10.70;99.90
46159;DHT22;31888;44.512;26.104;2023-04-15T02:08:00;10.70;99.90
46159;DHT22;31888;44.512;26.104;2023-04-15T02:10:27;10.80;99.90
46159;DHT22;31888;44.512;26.104;2023-04-15T02:12:53;10.60;99.90
46159;DHT22;31888;44.512;26.104;2023-04-15T02:15:18;10.70;99.90
46159;DHT22;31888;44.512;26.104;2023-04-15T02:17:48;10.70;99.90
46159;DHT22;31888;44.512;26.104;2023-04-15T02:20:14;10.50;99.90
46159;DHT22;31888;44.512;26.104;2023-04-15T02:22:40;10.60;99.90
46159;DHT22;31888;44.512;26.104;2023-04-15T02:25:07;10.60;99.90
46159;DHT22;31888;44.512;26.104;2023-04-15T02:27:34;10.60;99.90
46159;DHT22;31888;44.512;26.104;2023-04-15T02:30:00;10.60;99.90
46159;DHT22;31888;44.512;26.104;2023-04-15T02:32:25;10.70;99.90
46159;DHT22;31888;44.512;26.104;2023-04-15T02:34:53;10.70;99.90
46159;DHT22;31888;44.512;26.104;2023-04-15T02:37:20;10.70;99.90
46159;DHT22;31888;44.512;26.104;2023-04-15T02:39:46;10.70;99.90
46159;DHT22;31888;44.512;26.104;2023-04-15T02:42:12;10.80;99.90
46159;DHT22;31888;44.512;26.104;2023-04-15T02:44:38;10.80;99.90
46159;DHT22;31888;44.512;26.104;2023-04-15T02:47:04;10.80;99.90
46159;DHT22;31888;44.512;26.104;2023-04-15T02:49:30;10.90;99.90
46159;DHT22;31888;44.512;26.104;2023-04-15T02:51:58;10.80;99.90
46159;DHT22;31888;44.512;26.104;2023-04-15T02:54:24;10.80;99.90
46159;DHT22;31888;44.512;26.104;2023-04-15T02:56:51;10.90;99.90
46159;DHT22;31888;44.512;26.104;2023-04-15T02:59:19;10.90;99.90
46159;DHT22;31888;44.512;26.104;2023-04-15T03:01:44;10.90;99.90
46159;DHT22;31888;44.512;26.104;2023-04-15T03:04:10;10.90;99.90
46159;DHT22;31888;44.512;26.104;2023-04-15T03:06:37;10.90;99.90
46159;DHT22;31888;44.512;26.104;2023-04-15T03:09:06;10.90;99.90
46159;DHT22;31888;44.512;26.104;2023-04-15T03:11:34;10.90;99.90
46159;DHT22;31888;44.512;26.104;2023-04-15T03:14:05;10.90;99.90
46159;DHT22;31888;44.512;26.104;2023-04-15T03:16:34;10.90;99.90
46159;DHT22;31888;44.512;26.104;2023-04-15T03:18:59;11.00;99.90
46159;DHT22;31888;44.512;26.104;2023-04-15T03:21:26;11.00;99.90
46159;DHT22;31888;44.512;26.104;2023-04-15T03:23:51;11.10;99.90
46159;DHT22;31888;44.512;26.104;2023-04-15T03:26:25;11.20;99.90
46159;DHT22;31888;44.512;26.104;2023-04-15T03:28:55;11.30;99.90
46159;DHT22;31888;44.512;26.104;2023-04-15T03:31:21;11.30;99.90
46159;DHT22;31888;44.512;26.104;2023-04-15T03:33:47;11.40;99.90
46159;DHT22;31888;44.512;26.104;2023-04-15T03:36:13;11.40;99.90
46159;DHT22;31888;44.512;26.104;2023-04-15T03:38:39;11.40;99.90
46159;DHT22;31888;44.512;26.104;2023-04-15T03:41:04;11.40;99.90
46159;DHT22;31888;44.512;26.104;2023-04-15T03:43:32;11.40;99.90
46159;DHT22;31888;44.512;26.104;2023-04-15T03:45:57;11.40;99.90
46159;DHT22;31888;44.512;26.104;2023-04-15T03:48:25;11.40;99.90
46159;DHT22;31888;44.512;26.104;2023-04-15T03:50:50;11.40;99.90
46159;DHT22;31888;44.512;26.104;2023-04-15T03:53:16;11.50;99.90
46159;DHT22;31888;44.512;26.104;2023-04-15T03:55:42;11.90;99.90
46159;DHT22;31888;44.512;26.104;2023-04-15T03:58:08;12.20;99.90
46159;DHT22;31888;44.512;26.104;2023-04-15T04:00:37;12.30;99.90
46159;DHT22;31888;44.512;26.104;2023-04-15T04:03:03;12.30;99.90
46159;DHT22;31888;44.512;26.104;2023-04-15T04:05:29;12.50;99.90
46159;DHT22;31888;44.512;26.104;2023-04-15T04:07:55;12.40;99.90
46159;DHT22;31888;44.512;26.104;2023-04-15T04:10:21;12.40;99.90
46159;DHT22;31888;44.512;26.104;2023-04-15T04:12:46;12.40;99.90
46159;DHT22;31888;44.512;26.104;2023-04-15T04:15:12;12.40;99.90
46159;DHT22;31888;44.512;26.104;2023-04-15T04:17:39;12.40;99.90
46159;DHT22;31888;44.512;26.104;2023-04-15T04:20:06;12.90;99.90
46159;DHT22;31888;44.512;26.104;2023-04-15T04:22:36;13.40;99.90
46159;DHT22;31888;44.512;26.104;2023-04-15T04:25:02;13.80;99.90
46159;DHT22;31888;44.512;26.104;2023-04-15T04:27:28;14.40;99.90
46159;DHT22;31888;44.512;26.104;2023-04-15T04:29:53;14.50;99.90
46159;DHT22;31888;44.512;26.104;2023-04-15T04:32:19;14.40;99.90
46159;DHT22;31888;44.512;26.104;2023-04-15T04:34:46;14.60;99.90
46159;DHT22;31888;44.512;26.104;2023-04-15T04:37:12;14.80;99.60
46159;DHT22;31888;44.512;26.104;2023-04-15T04:39:38;14.90;98.90
46159;DHT22;31888;44.512;26.104;2023-04-15T04:42:04;14.60;99.00
46159;DHT22;31888;44.512;26.104;2023-04-15T04:44:30;14.30;99.50
46159;DHT22;31888;44.512;26.104;2023-04-15T04:46:55;14.00;99.90
46159;DHT22;31888;44.512;26.104;2023-04-15T04:49:21;13.90;99.90
46159;DHT22;31888;44.512;26.104;2023-04-15T04:51:48;13.90;99.90
46159;DHT22;31888;44.512;26.104;2023-04-15T04:54:14;13.80;99.90
46159;DHT22;31888;44.512;26.104;2023-04-15T04:56:40;13.80;99.90
46159;DHT22;31888;44.512;26.104;2023-04-15T04:59:06;13.60;99.90
46159;DHT22;31888;44.512;26.104;2023-04-15T05:01:32;13.40;99.90
46159;DHT22;31888;44.512;26.104;2023-04-15T05:03:59;13.20;99.90
46159;DHT22;31888;44.512;26.104;2023-04-15T05:06:25;13.00;99.90
46159;DHT22;31888;44.512;26.104;2023-04-15T05:08:52;12.90;99.90
46159;DHT22;31888;44.512;26.104;2023-04-15T05:11:18;12.40;99.90
46159;DHT22;31888;44.512;26.104;2023-04-15T05:13:44;12.20;99.90
46159;DHT22;31888;44.512;26.104;2023-04-15T05:16:10;12.00;99.90
46159;DHT22;31888;44.512;26.104;2023-04-15T05:18:36;12.00;99.90
46159;DHT22;31888;44.512;26.104;2023-04-15T05:21:01;12.00;99.90
46159;DHT22;31888;44.512;26.104;2023-04-15T05:23:27;12.10;99.90
46159;DHT22;31888;44.512;26.104;2023-04-15T05:25:54;12.30;99.90
46159;DHT22;31888;44.512;26.104;2023-04-15T05:28:20;12.50;99.90
46159;DHT22;31888;44.512;26.104;2023-04-15T05:30:46;12.70;99.90
46159;DHT22;31888;44.512;26.104;2023-04-15T05:33:11;13.00;99.90
46159;DHT22;31888;44.512;26.104;2023-04-15T05:35:37;13.10;99.90
46159;DHT22;31888;44.512;26.104;2023-04-15T05:38:03;13.10;99.90
46159;DHT22;31888;44.512;26.104;2023-04-15T05:40:29;13.00;99.90
46159;DHT22;31888;44.512;26.104;2023-04-15T05:42:56;13.10;99.90
46159;DHT22;31888;44.512;26.104;2023-04-15T05:45:22;13.10;99.90
46159;DHT22;31888;44.512;26.104;2023-04-15T05:47:48;13.10;99.90
46159;DHT22;31888;44.512;26.104;2023-04-15T05:50:17;13.20;99.90
46159;DHT22;31888;44.512;26.104;2023-04-15T05:52:43;13.20;99.90
46159;DHT22;31888;44.512;26.104;2023-04-15T05:55:09;13.30;99.90
46159;DHT22;31888;44.512;26.104;2023-04-15T05:57:35;13.40;99.90
46159;DHT22;31888;44.512;26.104;2023-04-15T06:00:03;13.50;99.90
46159;DHT22;31888;44.512;26.104;2023-04-15T06:02:32;13.50;99.90
46159;DHT22;31888;44.512;26.104;2023-04-15T06:04:58;13.60;99.90
46159;DHT22;31888;44.512;26.104;2023-04-15T06:07:24;13.70;99.90
46159;DHT22;31888;44.512;26.104;2023-04-15T06:09:50;13.80;99.60
46159;DHT22;31888;44.512;26.104;2023-04-15T06:12:16;13.90;99.60
46159;DHT22;31888;44.512;26.104;2023-04-15T06:14:42;14.10;99.60
46159;DHT22;31888;44.512;26.104;2023-04-15T06:17:09;14.30;99.30
46159;DHT22;31888;44.512;26.104;2023-04-15T06:19:35;14.40;98.90
46159;DHT22;31888;44.512;26.104;2023-04-15T06:22:01;14.60;98.90
46159;DHT22;31888;44.512;26.104;2023-04-15T06:24:26;14.80;98.50
46159;DHT22;31888;44.512;26.104;2023-04-15T06:26:52;14.90;98.20
46159;DHT22;31888;44.512;26.104;2023-04-15T06:29:18;14.90;98.00
46159;DHT22;31888;44.512;26.104;2023-04-15T06:31:46;15.10;98.10
46159;DHT22;31888;44.512;26.104;2023-04-15T06:34:13;15.50;97.70
46159;DHT22;31888;44.512;26.104;2023-04-15T06:36:39;15.80;97.70
46159;DHT22;31888;44.512;26.104;2023-04-15T06:39:05;15.90;97.30
46159;DHT22;31888;44.512;26.104;2023-04-15T06:41:30;16.10;97.30
46159;DHT22;31888;44.512;26.104;2023-04-15T06:43:57;16.10;96.30
46159;DHT22;31888;44.512;26.104;2023-04-15T06:46:23;16.10;96.10
46159;DHT22;31888;44.512;26.104;2023-04-15T06:48:49;16.10;96.00
46159;DHT22;31888;44.512;26.104;2023-04-15T06:51:16;16.10;96.00
46159;DHT22;31888;44.512;26.104;2023-04-15T06:53:42;16.10;95.90
46159;DHT22;31888;44.512;26.104;2023-04-15T06:56:08;16.40;95.90
46159;DHT22;31888;44.512;26.104;2023-04-15T06:58:34;16.50;95.60
46159;DHT22;31888;44.512;26.104;2023-04-15T07:00:59;16.50;95.30
46159;DHT22;31888;44.512;26.104;2023-04-15T07:03:25;16.60;95.30
46159;DHT22;31888;44.512;26.104;2023-04-15T07:05:51;16.70;95.40
46159;DHT22;31888;44.512;26.104;2023-04-15T07:08:19;17.00;95.20
46159;DHT22;31888;44.512;26.104;2023-04-15T07:10:45;16.70;95.70
46159;DHT22;31888;44.512;26.104;2023-04-15T07:13:11;16.60;95.80
46159;DHT22;31888;44.512;26.104;2023-04-15T07:15:37;16.80;96.10
46159;DHT22;31888;44.512;26.104;2023-04-15T07:18:03;17.00;95.90
46159;DHT22;31888;44.512;26.104;2023-04-15T07:20:29;17.20;95.30
46159;DHT22;31888;44.512;26.104;2023-04-15T07:22:55;17.30;94.90
46159;DHT22;31888;44.512;26.104;2023-04-15T07:25:22;17.20;95.20
46159;DHT22;31888;44.512;26.104;2023-04-15T07:27:48;17.40;94.50
46159;DHT22;31888;44.512;26.104;2023-04-15T07:30:14;17.80;94.00
46159;DHT22;31888;44.512;26.104;2023-04-15T07:32:41;18.00;94.20
46159;DHT22;31888;44.512;26.104;2023-04-15T07:35:07;18.50;92.80
46159;DHT22;31888;44.512;26.104;2023-04-15T07:37:34;19.00;92.30
46159;DHT22;31888;44.512;26.104;2023-04-15T07:39:59;19.30;91.40
46159;DHT22;31888;44.512;26.104;2023-04-15T07:42:26;19.00;90.80
46159;DHT22;31888;44.512;26.104;2023-04-15T07:44:53;19.00;91.80
46159;DHT22;31888;44.512;26.104;2023-04-15T07:47:18;19.40;91.20
46159;DHT22;31888;44.512;26.104;2023-04-15T07:49:44;19.90;90.60
46159;DHT22;31888;44.512;26.104;2023-04-15T07:52:10;20.20;90.40
46159;DHT22;31888;44.512;26.104;2023-04-15T07:54:36;20.40;89.40
46159;DHT22;31888;44.512;26.104;2023-04-15T07:57:02;20.40;89.70
46159;DHT22;31888;44.512;26.104;2023-04-15T07:59:29;20.60;89.20
46159;DHT22;31888;44.512;26.104;2023-04-15T08:01:56;20.80;86.90
46159;DHT22;31888;44.512;26.104;2023-04-15T08:04:22;20.60;87.70
46159;DHT22;31888;44.512;26.104;2023-04-15T08:06:48;20.60;88.60
46159;DHT22;31888;44.512;26.104;2023-04-15T08:09:15;21.20;86.70
46159;DHT22;31888;44.512;26.104;2023-04-15T08:11:41;21.50;84.40
46159;DHT22;31888;44.512;26.104;2023-04-15T08:14:07;21.70;83.70
46159;DHT22;31888;44.512;26.104;2023-04-15T08:16:34;22.20;82.70
46159;DHT22;31888;44.512;26.104;2023-04-15T08:19:00;22.50;80.70
46159;DHT22;31888;44.512;26.104;2023-04-15T08:21:27;22.20;81.20
46159;DHT22;31888;44.512;26.104;2023-04-15T08:23:54;21.70;82.50
46159;DHT22;31888;44.512;26.104;2023-04-15T08:26:20;21.70;81.50
46159;DHT22;31888;44.512;26.104;2023-04-15T08:28:46;21.60;82.10
46159;DHT22;31888;44.512;26.104;2023-04-15T08:31:13;21.50;82.90
46159;DHT22;31888;44.512;26.104;2023-04-15T08:33:41;21.50;82.50
46159;DHT22;31888;44.512;26.104;2023-04-15T08:36:07;21.80;81.70
46159;DHT22;31888;44.512;26.104;2023-04-15T08:38:32;22.10;79.90
46159;DHT22;31888;44.512;26.104;2023-04-15T08:41:01;22.20;80.10
46159;DHT22;31888;44.512;26.104;2023-04-15T08:43:33;22.40;79.20
46159;DHT22;31888;44.512;26.104;2023-04-15T08:45:59;22.30;79.70
46159;DHT22;31888;44.512;26.104;2023-04-15T08:48:28;22.40;79.60
46159;DHT22;31888;44.512;26.104;2023-04-15T08:50:56;22.20;77.60
46159;DHT22;31888;44.512;26.104;2023-04-15T08:53:23;22.20;78.50
46159;DHT22;31888;44.512;26.104;2023-04-15T08:55:51;22.50;77.70
46159;DHT22;31888;44.512;26.104;2023-04-15T08:58:18;22.60;77.30
46159;DHT22;31888;44.512;26.104;2023-04-15T09:00:44;22.60;77.50
46159;DHT22;31888;44.512;26.104;2023-04-15T09:03:12;22.60;77.20
46159;DHT22;31888;44.512;26.104;2023-04-15T09:05:38;22.80;76.40
46159;DHT22;31888;44.512;26.104;2023-04-15T09:08:05;22.80;76.20
46159;DHT22;31888;44.512;26.104;2023-04-15T09:10:32;22.90;74.70
46159;DHT22;31888;44.512;26.104;2023-04-15T09:12:58;22.80;74.70
46159;DHT22;31888;44.512;26.104;2023-04-15T09:15:24;22.70;76.00
46159;DHT22;31888;44.512;26.104;2023-04-15T09:17:50;22.70;75.60
46159;DHT22;31888;44.512;26.104;2023-04-15T09:20:16;22.60;74.00
46159;DHT22;31888;44.512;26.104;2023-04-15T09:22:46;22.80;72.60
46159;DHT22;31888;44.512;26.104;2023-04-15T09:25:29;22.90;72.30
46159;DHT22;31888;44.512;26.104;2023-04-15T09:27:59;22.80;72.20
46159;DHT22;31888;44.512;26.104;2023-04-15T09:30:26;22.20;74.80
46159;DHT22;31888;44.512;26.104;2023-04-15T09:32:54;22.30;75.20
46159;DHT22;31888;44.512;26.104;2023-04-15T09:35:21;22.70;73.10
46159;DHT22;31888;44.512;26.104;2023-04-15T09:37:46;22.80;73.60
46159;DHT22;31888;44.512;26.104;2023-04-15T09:40:12;22.80;71.40
46159;DHT22;31888;44.512;26.104;2023-04-15T09:45:10;22.80;72.00
46159;DHT22;31888;44.512;26.104;2023-04-15T09:47:36;22.80;71.40
46159;DHT22;31888;44.512;26.104;2023-04-15T09:50:02;22.60;73.20
46159;DHT22;31888;44.512;26.104;2023-04-15T09:52:28;22.90;71.60
46159;DHT22;31888;44.512;26.104;2023-04-15T09:54:55;23.10;72.40
46159;DHT22;31888;44.512;26.104;2023-04-15T09:57:22;22.90;73.80
46159;DHT22;31888;44.512;26.104;2023-04-15T09:59:48;23.00;73.50
46159;DHT22;31888;44.512;26.104;2023-04-15T10:02:15;23.00;73.30
46159;DHT22;31888;44.512;26.104;2023-04-15T10:04:43;23.00;73.00
46159;DHT22;31888;44.512;26.104;2023-04-15T10:07:11;22.90;72.10
46159;DHT22;31888;44.512;26.104;2023-04-15T10:09:38;22.90;71.70
46159;DHT22;31888;44.512;26.104;2023-04-15T10:12:04;22.80;71.50
46159;DHT22;31888;44.512;26.104;2023-04-15T10:14:33;22.70;70.00
46159;DHT22;31888;44.512;26.104;2023-04-15T10:17:00;22.60;71.00
46159;DHT22;31888;44.512;26.104;2023-04-15T10:19:30;22.50;70.30
46159;DHT22;31888;44.512;26.104;2023-04-15T10:21:58;22.70;68.60
46159;DHT22;31888;44.512;26.104;2023-04-15T10:24:24;22.70;67.50
46159;DHT22;31888;44.512;26.104;2023-04-15T10:26:51;22.70;65.80
46159;DHT22;31888;44.512;26.104;2023-04-15T10:29:17;23.10;67.10
46159;DHT22;31888;44.512;26.104;2023-04-15T10:31:43;23.10;66.20
46159;DHT22;31888;44.512;26.104;2023-04-15T10:34:09;22.80;65.40
46159;DHT22;31888;44.512;26.104;2023-04-15T10:36:37;22.80;63.10
46159;DHT22;31888;44.512;26.104;2023-04-15T10:39:37;22.80;64.90
46159;DHT22;31888;44.512;26.104;2023-04-15T10:42:06;22.90;66.50
46159;DHT22;31888;44.512;26.104;2023-04-15T10:44:32;22.90;66.30
46159;DHT22;31888;44.512;26.104;2023-04-15T10:46:58;22.70;66.20
46159;DHT22;31888;44.512;26.104;2023-04-15T10:49:25;22.70;65.90
46159;DHT22;31888;44.512;26.104;2023-04-15T10:51:56;22.70;64.30
46159;DHT22;31888;44.512;26.104;2023-04-15T10:54:31;22.70;63.70
46159;DHT22;31888;44.512;26.104;2023-04-15T10:57:09;22.50;64.70
46159;DHT22;31888;44.512;26.104;2023-04-15T10:59:58;22.60;65.80
46159;DHT22;31888;44.512;26.104;2023-04-15T11:02:37;22.50;66.00
46159;DHT22;31888;44.512;26.104;2023-04-15T11:05:05;22.40;67.00
46159;DHT22;31888;44.512;26.104;2023-04-15T11:07:38;22.60;66.80
46159;DHT22;31888;44.512;26.104;2023-04-15T11:13:26;22.70;66.30
46159;DHT22;31888;44.512;26.104;2023-04-15T11:16:00;22.60;67.70
46159;DHT22;31888;44.512;26.104;2023-04-15T11:18:29;22.50;67.30
46159;DHT22;31888;44.512;26.104;2023-04-15T11:20:56;22.50;66.10
46159;DHT22;31888;44.512;26.104;2023-04-15T11:23:35;22.50;64.20
46159;DHT22;31888;44.512;26.104;2023-04-15T11:26:03;22.40;64.80
46159;DHT22;31888;44.512;26.104;2023-04-15T11:28:32;22.30;66.30
46159;DHT22;31888;44.512;26.104;2023-04-15T11:31:06;22.30;65.20
46159;DHT22;31888;44.512;26.104;2023-04-15T11:33:34;22.40;65.70
46159;DHT22;31888;44.512;26.104;2023-04-15T11:36:00;22.60;65.00
46159;DHT22;31888;44.512;26.104;2023-04-15T11:38:26;22.60;66.00
46159;DHT22;31888;44.512;26.104;2023-04-15T11:40:53;22.70;64.60
46159;DHT22;31888;44.512;26.104;2023-04-15T11:43:21;22.80;64.10
46159;DHT22;31888;44.512;26.104;2023-04-15T11:45:52;22.80;64.10
46159;DHT22;31888;44.512;26.104;2023-04-15T11:48:19;22.70;64.40
46159;DHT22;31888;44.512;26.104;2023-04-15T11:50:45;22.60;64.00
46159;DHT22;31888;44.512;26.104;2023-04-15T11:53:13;22.40;65.20
46159;DHT22;31888;44.512;26.104;2023-04-15T11:55:42;22.60;64.70
46159;DHT22;31888;44.512;26.104;2023-04-15T11:58:11;22.70;64.10
46159;DHT22;31888;44.512;26.104;2023-04-15T12:00:39;22.70;63.20
46159;DHT22;31888;44.512;26.104;2023-04-15T12:03:15;22.50;61.80
46159;DHT22;31888;44.512;26.104;2023-04-15T12:06:04;22.60;62.00
46159;DHT22;31888;44.512;26.104;2023-04-15T12:08:48;22.60;61.30
46159;DHT22;31888;44.512;26.104;2023-04-15T12:11:13;22.50;61.60
46159;DHT22;31888;44.512;26.104;2023-04-15T12:13:43;22.70;61.30
46159;DHT22;31888;44.512;26.104;2023-04-15T12:16:07;22.60;61.30
46159;DHT22;31888;44.512;26.104;2023-04-15T12:18:32;22.50;62.40
46159;DHT22;31888;44.512;26.104;2023-04-15T12:21:08;22.50;62.00
46159;DHT22;31888;44.512;26.104;2023-04-15T12:23:36;22.40;60.90
46159;DHT22;31888;44.512;26.104;2023-04-15T12:26:04;22.50;61.80
46159;DHT22;31888;44.512;26.104;2023-04-15T12:28:29;22.80;61.40
46159;DHT22;31888;44.512;26.104;2023-04-15T12:30:56;22.70;60.30
46159;DHT22;31888;44.512;26.104;2023-04-15T12:33:21;22.60;57.70
46159;DHT22;31888;44.512;26.104;2023-04-15T12:35:46;22.40;59.80
46159;DHT22;31888;44.512;26.104;2023-04-15T12:38:10;22.30;61.20
46159;DHT22;31888;44.512;26.104;2023-04-15T12:40:35;22.40;62.20
46159;DHT22;31888;44.512;26.104;2023-04-15T12:43:00;22.60;61.90
46159;DHT22;31888;44.512;26.104;2023-04-15T12:45:25;22.70;61.20
46159;DHT22;31888;44.512;26.104;2023-04-15T12:47:53;22.70;62.70
46159;DHT22;31888;44.512;26.104;2023-04-15T12:50:18;22.70;61.70
46159;DHT22;31888;44.512;26.104;2023-04-15T12:52:42;22.80;60.30
46159;DHT22;31888;44.512;26.104;2023-04-15T12:55:07;22.80;57.50
46159;DHT22;31888;44.512;26.104;2023-04-15T12:57:32;22.60;56.90
46159;DHT22;31888;44.512;26.104;2023-04-15T12:59:57;22.50;58.10
46159;DHT22;31888;44.512;26.104;2023-04-15T13:02:21;22.50;60.00
46159;DHT22;31888;44.512;26.104;2023-04-15T13:04:49;22.50;61.30
46159;DHT22;31888;44.512;26.104;2023-04-15T13:07:14;22.70;59.90
46159;DHT22;31888;44.512;26.104;2023-04-15T13:09:39;22.70;59.90
46159;DHT22;31888;44.512;26.104;2023-04-15T13:12:03;22.80;60.00
46159;DHT22;31888;44.512;26.104;2023-04-15T13:14:28;22.60;59.90
46159;DHT22;31888;44.512;26.104;2023-04-15T13:16:53;22.50;58.90
46159;DHT22;31888;44.512;26.104;2023-04-15T13:19:17;22.20;58.70
46159;DHT22;31888;44.512;26.104;2023-04-15T13:21:46;22.10;59.00
46159;DHT22;31888;44.512;26.104;2023-04-15T13:24:12;22.20;59.60
46159;DHT22;31888;44.512;26.104;2023-04-15T13:26:36;22.40;59.60
46159;DHT22;31888;44.512;26.104;2023-04-15T13:29:01;22.60;59.90
46159;DHT22;31888;44.512;26.104;2023-04-15T13:31:25;22.60;59.40
46159;DHT22;31888;44.512;26.104;2023-04-15T13:33:50;22.60;57.40
46159;DHT22;31888;44.512;26.104;2023-04-15T13:36:15;22.70;58.30
46159;DHT22;31888;44.512;26.104;2023-04-15T13:38:40;22.70;56.50
46159;DHT22;31888;44.512;26.104;2023-04-15T13:41:05;22.40;55.80
46159;DHT22;31888;44.512;26.104;2023-04-15T13:43:30;22.20;56.40
46159;DHT22;31888;44.512;26.104;2023-04-15T13:46:08;22.10;56.50
46159;DHT22;31888;44.512;26.104;2023-04-15T13:48:33;22.20;57.10
46159;DHT22;31888;44.512;26.104;2023-04-15T13:50:58;22.20;56.70
46159;DHT22;31888;44.512;26.104;2023-04-15T13:53:22;22.20;56.00
46159;DHT22;31888;44.512;26.104;2023-04-15T13:56:02;22.30;56.00
46159;DHT22;31888;44.512;26.104;2023-04-15T13:58:26;22.10;56.40
46159;DHT22;31888;44.512;26.104;2023-04-15T14:00:51;22.20;57.30
46159;DHT22;31888;44.512;26.104;2023-04-15T14:03:16;22.20;58.20
46159;DHT22;31888;44.512;26.104;2023-04-15T14:05:41;22.10;57.70
46159;DHT22;31888;44.512;26.104;2023-04-15T14:08:05;22.00;57.80
46159;DHT22;31888;44.512;26.104;2023-04-15T14:10:30;22.00;57.50
46159;DHT22;31888;44.512;26.104;2023-04-15T14:12:59;22.00;57.40
46159;DHT22;31888;44.512;26.104;2023-04-15T14:15:24;21.90;57.50
46159;DHT22;31888;44.512;26.104;2023-04-15T14:17:51;22.00;57.90
46159;DHT22;31888;44.512;26.104;2023-04-15T14:20:16;22.10;57.20
46159;DHT22;31888;44.512;26.104;2023-04-15T14:22:41;22.00;55.10
46159;DHT22;31888;44.512;26.104;2023-04-15T14:25:06;21.70;55.80
46159;DHT22;31888;44.512;26.104;2023-04-15T14:27:33;21.50;55.70
46159;DHT22;31888;44.512;26.104;2023-04-15T14:29:59;21.40;56.20
46159;DHT22;31888;44.512;26.104;2023-04-15T14:32:26;21.30;56.10
46159;DHT22;31888;44.512;26.104;2023-04-15T14:34:51;21.30;56.20
46159;DHT22;31888;44.512;26.104;2023-04-15T14:37:16;21.30;56.20
46159;DHT22;31888;44.512;26.104;2023-04-15T14:39:40;21.20;55.80
46159;DHT22;31888;44.512;26.104;2023-04-15T14:42:05;21.10;56.40
46159;DHT22;31888;44.512;26.104;2023-04-15T14:44:30;21.20;57.50
46159;DHT22;31888;44.512;26.104;2023-04-15T14:46:56;21.20;57.10
46159;DHT22;31888;44.512;26.104;2023-04-15T14:49:21;21.00;56.20
46159;DHT22;31888;44.512;26.104;2023-04-15T14:51:45;21.10;57.60
46159;DHT22;31888;44.512;26.104;2023-04-15T14:54:10;21.20;57.20
46159;DHT22;31888;44.512;26.104;2023-04-15T14:56:34;21.20;57.10
46159;DHT22;31888;44.512;26.104;2023-04-15T14:58:59;21.20;55.80
46159;DHT22;31888;44.512;26.104;2023-04-15T15:01:24;21.20;55.80
46159;DHT22;31888;44.512;26.104;2023-04-15T15:03:50;21.00;56.20
46159;DHT22;31888;44.512;26.104;2023-04-15T15:06:15;21.00;57.10
46159;DHT22;31888;44.512;26.104;2023-04-15T15:08:40;21.00;56.80
46159;DHT22;31888;44.512;26.104;2023-04-15T15:11:04;21.00;56.40
46159;DHT22;31888;44.512;26.104;2023-04-15T15:13:29;20.90;56.50
46159;DHT22;31888;44.512;26.104;2023-04-15T15:15:55;21.00;55.90
46159;DHT22;31888;44.512;26.104;2023-04-15T15:18:20;20.80;55.90